sensor_id;sensor_type;location;lat;lon;timestamp;P1;durP1;ratioP1;P2;durP2;ratioP2
33266;SDS011;19638;49.080;11.896;2023-09-19T00:00:14;6.18;;;2.78;;
33266;SDS011;19638;49.080;11.896;2023-09-19T00:04:22;5.72;;;3.25;;
33266;SDS011;19638;49.080;11.896;2023-09-19T00:08:30;8.40;;;3.30;;
33266;SDS011;19638;49.080;11.896;2023-09-19T00:12:34;7.88;;;3.22;;
33266;SDS011;19638;49.080;11.896;2023-09-19T00:16:37;5.93;;;3.20;;
33266;SDS011;19638;49.080;11.896;2023-09-19T00:20:45;7.70;;;3.42;;
33266;SDS011;19638;49.080;11.896;2023-09-19T00:24:55;6.50;;;3.67;;
33266;SDS011;19638;49.080;11.896;2023-09-19T00:28:58;7.13;;;2.95;;
33266;SDS011;19638;49.080;11.896;2023-09-19T00:33:11;5.13;;;3.00;;
33266;SDS011;19638;49.080;11.896;2023-09-19T00:37:19;4.80;;;2.80;;
33266;SDS011;19638;49.080;11.896;2023-09-19T00:41:26;5.40;;;3.28;;
33266;SDS011;19638;49.080;11.896;2023-09-19T00:45:32;4.32;;;3.10;;
33266;SDS011;19638;49.080;11.896;2023-09-19T00:49:42;9.27;;;3.30;;
33266;SDS011;19638;49.080;11.896;2023-09-19T00:53:48;6.38;;;3.60;;
33266;SDS011;19638;49.080;11.896;2023-09-19T00:57:51;6.03;;;2.95;;
33266;SDS011;19638;49.080;11.896;2023-09-19T01:01:55;7.05;;;3.47;;
33266;SDS011;19638;49.080;11.896;2023-09-19T01:06:05;6.82;;;3.40;;
33266;SDS011;19638;49.080;11.896;2023-09-19T01:10:11;7.53;;;3.60;;
33266;SDS011;19638;49.080;11.896;2023-09-19T01:14:20;8.30;;;3.35;;
33266;SDS011;19638;49.080;11.896;2023-09-19T01:18:35;7.38;;;3.53;;
33266;SDS011;19638;49.080;11.896;2023-09-19T01:22:46;5.97;;;3.65;;
33266;SDS011;19638;49.080;11.896;2023-09-19T01:27:11;7.60;;;3.67;;
33266;SDS011;19638;49.080;11.896;2023-09-19T01:31:29;5.78;;;3.40;;
33266;SDS011;19638;49.080;11.896;2023-09-19T01:35:37;7.32;;;3.22;;
33266;SDS011;19638;49.080;11.896;2023-09-19T01:39:44;5.30;;;3.10;;
33266;SDS011;19638;49.080;11.896;2023-09-19T01:43:51;6.95;;;3.40;;
33266;SDS011;19638;49.080;11.896;2023-09-19T01:48:01;7.85;;;3.40;;
33266;SDS011;19638;49.080;11.896;2023-09-19T01:52:19;5.95;;;3.47;;
33266;SDS011;19638;49.080;11.896;2023-09-19T01:56:27;6.43;;;3.15;;
33266;SDS011;19638;49.080;11.896;2023-09-19T02:00:40;5.50;;;3.50;;
33266;SDS011;19638;49.080;11.896;2023-09-19T02:04:52;5.60;;;2.83;;
33266;SDS011;19638;49.080;11.896;2023-09-19T02:08:57;4.32;;;2.90;;
33266;SDS011;19638;49.080;11.896;2023-09-19T02:13:01;6.68;;;3.25;;
33266;SDS011;19638;49.080;11.896;2023-09-19T02:17:07;6.25;;;3.55;;
33266;SDS011;19638;49.080;11.896;2023-09-19T02:21:17;6.30;;;3.05;;
33266;SDS011;19638;49.080;11.896;2023-09-19T02:25:20;5.10;;;2.95;;
33266;SDS011;19638;49.080;11.896;2023-09-19T02:29:25;6.05;;;3.00;;
33266;SDS011;19638;49.080;11.896;2023-09-19T02:33:28;9.32;;;3.05;;
33266;SDS011;19638;49.080;11.896;2023-09-19T02:37:38;5.38;;;3.10;;
33266;SDS011;19638;49.080;11.896;2023-09-19T02:41:42;9.80;;;3.10;;
33266;SDS011;19638;49.080;11.896;2023-09-19T02:45:47;4.95;;;2.67;;
33266;SDS011;19638;49.080;11.896;2023-09-19T02:49:52;3.60;;;3.00;;
33266;SDS011;19638;49.080;11.896;2023-09-19T02:54:01;5.47;;;3.35;;
33266;SDS011;19638;49.080;11.896;2023-09-19T02:58:05;5.82;;;2.95;;
33266;SDS011;19638;49.080;11.896;2023-09-19T03:02:15;6.93;;;3.08;;
33266;SDS011;19638;49.080;11.896;2023-09-19T03:06:20;3.38;;;2.67;;
33266;SDS011;19638;49.080;11.896;2023-09-19T03:10:24;5.53;;;2.90;;
33266;SDS011;19638;49.080;11.896;2023-09-19T03:14:35;3.22;;;2.63;;
33266;SDS011;19638;49.080;11.896;2023-09-19T03:18:38;8.07;;;3.33;;
33266;SDS011;19638;49.080;11.896;2023-09-19T03:22:43;5.53;;;2.53;;
33266;SDS011;19638;49.080;11.896;2023-09-19T03:26:51;6.35;;;2.83;;
33266;SDS011;19638;49.080;11.896;2023-09-19T03:30:58;5.38;;;2.60;;
33266;SDS011;19638;49.080;11.896;2023-09-19T03:35:03;3.97;;;2.83;;
33266;SDS011;19638;49.080;11.896;2023-09-19T03:39:08;5.93;;;2.70;;
33266;SDS011;19638;49.080;11.896;2023-09-19T03:43:13;4.60;;;2.97;;
33266;SDS011;19638;49.080;11.896;2023-09-19T03:47:17;3.28;;;2.60;;
33266;SDS011;19638;49.080;11.896;2023-09-19T03:51:23;2.33;;;2.13;;
33266;SDS011;19638;49.080;11.896;2023-09-19T03:55:26;4.18;;;2.28;;
33266;SDS011;19638;49.080;11.896;2023-09-19T03:59:33;5.85;;;2.33;;
33266;SDS011;19638;49.080;11.896;2023-09-19T04:03:39;2.47;;;2.28;;
33266;SDS011;19638;49.080;11.896;2023-09-19T04:07:51;3.53;;;2.00;;
33266;SDS011;19638;49.080;11.896;2023-09-19T04:12:05;4.20;;;2.28;;
33266;SDS011;19638;49.080;11.896;2023-09-19T04:16:11;6.35;;;3.08;;
33266;SDS011;19638;49.080;11.896;2023-09-19T04:20:15;6.78;;;2.40;;
33266;SDS011;19638;49.080;11.896;2023-09-19T04:24:24;5.57;;;2.60;;
33266;SDS011;19638;49.080;11.896;2023-09-19T04:28:27;2.97;;;2.38;;
33266;SDS011;19638;49.080;11.896;2023-09-19T04:32:35;4.93;;;2.20;;
33266;SDS011;19638;49.080;11.896;2023-09-19T04:36:39;3.78;;;2.10;;
33266;SDS011;19638;49.080;11.896;2023-09-19T04:40:45;2.45;;;2.05;;
33266;SDS011;19638;49.080;11.896;2023-09-19T04:44:50;3.78;;;2.28;;
33266;SDS011;19638;49.080;11.896;2023-09-19T04:48:56;11.68;;;2.45;;
33266;SDS011;19638;49.080;11.896;2023-09-19T04:53:01;2.50;;;2.28;;
33266;SDS011;19638;49.080;11.896;2023-09-19T04:57:04;3.17;;;2.30;;
33266;SDS011;19638;49.080;11.896;2023-09-19T05:01:09;2.90;;;2.53;;
33266;SDS011;19638;49.080;11.896;2023-09-19T05:05:15;2.92;;;2.15;;
33266;SDS011;19638;49.080;11.896;2023-09-19T05:09:22;4.15;;;2.10;;
33266;SDS011;19638;49.080;11.896;2023-09-19T05:13:28;6.32;;;2.30;;
33266;SDS011;19638;49.080;11.896;2023-09-19T05:17:32;4.38;;;2.28;;
33266;SDS011;19638;49.080;11.896;2023-09-19T05:21:37;4.32;;;2.60;;
33266;SDS011;19638;49.080;11.896;2023-09-19T05:25:43;5.93;;;2.13;;
33266;SDS011;19638;49.080;11.896;2023-09-19T05:29:47;3.45;;;2.40;;
33266;SDS011;19638;49.080;11.896;2023-09-19T05:33:52;2.53;;;2.00;;
33266;SDS011;19638;49.080;11.896;2023-09-19T05:37:57;3.20;;;1.98;;
33266;SDS011;19638;49.080;11.896;2023-09-19T05:42:01;4.93;;;2.17;;
33266;SDS011;19638;49.080;11.896;2023-09-19T05:46:07;2.83;;;1.85;;
33266;SDS011;19638;49.080;11.896;2023-09-19T05:50:13;3.22;;;1.90;;
33266;SDS011;19638;49.080;11.896;2023-09-19T05:54:19;3.63;;;2.00;;
33266;SDS011;19638;49.080;11.896;2023-09-19T05:58:23;6.05;;;2.08;;
33266;SDS011;19638;49.080;11.896;2023-09-19T06:02:28;2.92;;;2.15;;
33266;SDS011;19638;49.080;11.896;2023-09-19T06:06:34;2.90;;;1.90;;
33266;SDS011;19638;49.080;11.896;2023-09-19T06:10:42;4.85;;;2.03;;
33266;SDS011;19638;49.080;11.896;2023-09-19T06:14:48;5.68;;;1.90;;
33266;SDS011;19638;49.080;11.896;2023-09-19T06:18:52;3.33;;;1.80;;
33266;SDS011;19638;49.080;11.896;2023-09-19T06:22:56;1.85;;;1.75;;
33266;SDS011;19638;49.080;11.896;2023-09-19T06:27:04;1.80;;;1.70;;
33266;SDS011;19638;49.080;11.896;2023-09-19T06:31:11;1.60;;;1.50;;
33266;SDS011;19638;49.080;11.896;2023-09-19T06:35:18;1.73;;;1.63;;
33266;SDS011;19638;49.080;11.896;2023-09-19T06:39:21;3.63;;;1.85;;
33266;SDS011;19638;49.080;11.896;2023-09-19T06:43:26;3.47;;;1.73;;
33266;SDS011;19638;49.080;11.896;2023-09-19T06:47:29;1.95;;;1.70;;
33266;SDS011;19638;49.080;11.896;2023-09-19T06:51:35;1.63;;;1.30;;
33266;SDS011;19638;49.080;11.896;2023-09-19T06:55:38;1.85;;;1.73;;
33266;SDS011;19638;49.080;11.896;2023-09-19T06:59:43;3.42;;;1.60;;
33266;SDS011;19638;49.080;11.896;2023-09-19T07:03:48;2.90;;;1.88;;
33266;SDS011;19638;49.080;11.896;2023-09-19T07:07:55;5.60;;;1.70;;
33266;SDS011;19638;49.080;11.896;2023-09-19T07:12:02;2.30;;;1.40;;
33266;SDS011;19638;49.080;11.896;2023-09-19T07:16:08;1.75;;;1.65;;
33266;SDS011;19638;49.080;11.896;2023-09-19T07:20:20;8.82;;;1.90;;
33266;SDS011;19638;49.080;11.896;2023-09-19T07:24:23;4.93;;;1.75;;
33266;SDS011;19638;49.080;11.896;2023-09-19T07:28:30;2.95;;;1.60;;
33266;SDS011;19638;49.080;11.896;2023-09-19T07:32:35;3.67;;;1.73;;
33266;SDS011;19638;49.080;11.896;2023-09-19T07:36:44;4.90;;;1.73;;
33266;SDS011;19638;49.080;11.896;2023-09-19T07:40:49;5.18;;;1.77;;
33266;SDS011;19638;49.080;11.896;2023-09-19T07:44:55;2.70;;;1.75;;
33266;SDS011;19638;49.080;11.896;2023-09-19T07:48:59;1.63;;;1.52;;
33266;SDS011;19638;49.080;11.896;2023-09-19T07:53:06;2.85;;;1.40;;
33266;SDS011;19638;49.080;11.896;2023-09-19T07:57:09;3.42;;;1.42;;
33266;SDS011;19638;49.080;11.896;2023-09-19T08:01:13;4.53;;;1.60;;
33266;SDS011;19638;49.080;11.896;2023-09-19T08:05:19;1.65;;;1.55;;
33266;SDS011;19638;49.080;11.896;2023-09-19T08:09:24;2.53;;;1.50;;
33266;SDS011;19638;49.080;11.896;2023-09-19T08:13:28;3.15;;;1.98;;
33266;SDS011;19638;49.080;11.896;2023-09-19T08:17:33;1.90;;;1.55;;
33266;SDS011;19638;49.080;11.896;2023-09-19T08:21:39;1.50;;;1.40;;
33266;SDS011;19638;49.080;11.896;2023-09-19T08:25:50;1.75;;;1.65;;
33266;SDS011;19638;49.080;11.896;2023-09-19T08:29:53;1.67;;;1.50;;
33266;SDS011;19638;49.080;11.896;2023-09-19T08:33:56;2.17;;;1.60;;
33266;SDS011;19638;49.080;11.896;2023-09-19T08:38:01;1.88;;;1.70;;
33266;SDS011;19638;49.080;11.896;2023-09-19T08:42:06;2.40;;;1.70;;
33266;SDS011;19638;49.080;11.896;2023-09-19T08:46:15;2.13;;;1.65;;
33266;SDS011;19638;49.080;11.896;2023-09-19T08:50:23;1.60;;;1.50;;
33266;SDS011;19638;49.080;11.896;2023-09-19T08:54:33;1.50;;;1.40;;
33266;SDS011;19638;49.080;11.896;2023-09-19T08:58:43;2.97;;;1.50;;
33266;SDS011;19638;49.080;11.896;2023-09-19T09:02:49;2.53;;;1.55;;
33266;SDS011;19638;49.080;11.896;2023-09-19T09:06:53;1.92;;;1.63;;
33266;SDS011;19638;49.080;11.896;2023-09-19T09:11:02;2.47;;;1.75;;
33266;SDS011;19638;49.080;11.896;2023-09-19T09:15:16;1.58;;;1.40;;
33266;SDS011;19638;49.080;11.896;2023-09-19T09:19:25;1.92;;;1.60;;
33266;SDS011;19638;49.080;11.896;2023-09-19T09:23:28;4.15;;;1.67;;
33266;SDS011;19638;49.080;11.896;2023-09-19T09:27:35;1.73;;;1.63;;
33266;SDS011;19638;49.080;11.896;2023-09-19T09:31:38;1.55;;;1.25;;
33266;SDS011;19638;49.080;11.896;2023-09-19T09:35:47;2.03;;;1.50;;
33266;SDS011;19638;49.080;11.896;2023-09-19T09:39:58;1.55;;;1.45;;
33266;SDS011;19638;49.080;11.896;2023-09-19T09:44:22;1.45;;;1.35;;
33266;SDS011;19638;49.080;11.896;2023-09-19T09:48:27;2.42;;;1.58;;
33266;SDS011;19638;49.080;11.896;2023-09-19T09:52:44;2.03;;;1.40;;
33266;SDS011;19638;49.080;11.896;2023-09-19T09:56:51;1.60;;;1.50;;
33266;SDS011;19638;49.080;11.896;2023-09-19T10:01:02;1.55;;;1.42;;
33266;SDS011;19638;49.080;11.896;2023-09-19T10:05:11;3.95;;;1.65;;
33266;SDS011;19638;49.080;11.896;2023-09-19T10:09:22;1.80;;;1.70;;
33266;SDS011;19638;49.080;11.896;2023-09-19T10:13:37;2.10;;;1.60;;
33266;SDS011;19638;49.080;11.896;2023-09-19T10:17:47;1.60;;;1.50;;
33266;SDS011;19638;49.080;11.896;2023-09-19T10:21:53;1.95;;;1.67;;
33266;SDS011;19638;49.080;11.896;2023-09-19T10:25:59;2.08;;;1.88;;
33266;SDS011;19638;49.080;11.896;2023-09-19T10:30:16;2.40;;;2.00;;
33266;SDS011;19638;49.080;11.896;2023-09-19T10:34:22;2.00;;;1.80;;
33266;SDS011;19638;49.080;11.896;2023-09-19T10:38:28;2.20;;;2.00;;
33266;SDS011;19638;49.080;11.896;2023-09-19T10:42:32;2.25;;;1.63;;
33266;SDS011;19638;49.080;11.896;2023-09-19T10:46:40;2.28;;;1.98;;
33266;SDS011;19638;49.080;11.896;2023-09-19T10:50:47;3.25;;;2.17;;
33266;SDS011;19638;49.080;11.896;2023-09-19T10:54:53;2.05;;;1.95;;
33266;SDS011;19638;49.080;11.896;2023-09-19T10:59:07;3.30;;;2.17;;
33266;SDS011;19638;49.080;11.896;2023-09-19T11:03:16;2.20;;;2.03;;
33266;SDS011;19638;49.080;11.896;2023-09-19T11:07:26;2.05;;;1.83;;
33266;SDS011;19638;49.080;11.896;2023-09-19T11:11:41;2.25;;;1.80;;
33266;SDS011;19638;49.080;11.896;2023-09-19T11:16:03;3.30;;;2.30;;
33266;SDS011;19638;49.080;11.896;2023-09-19T11:20:19;2.83;;;1.95;;
33266;SDS011;19638;49.080;11.896;2023-09-19T11:24:44;3.85;;;2.05;;
33266;SDS011;19638;49.080;11.896;2023-09-19T11:28:48;2.00;;;1.80;;
33266;SDS011;19638;49.080;11.896;2023-09-19T11:33:27;3.55;;;2.20;;
33266;SDS011;19638;49.080;11.896;2023-09-19T11:46:54;2.75;;;1.83;;
33266;SDS011;19638;49.080;11.896;2023-09-19T11:51:00;2.47;;;1.95;;
33266;SDS011;19638;49.080;11.896;2023-09-19T11:55:09;1.80;;;1.70;;
33266;SDS011;19638;49.080;11.896;2023-09-19T11:59:20;1.60;;;1.50;;
33266;SDS011;19638;49.080;11.896;2023-09-19T12:03:31;2.88;;;1.75;;
33266;SDS011;19638;49.080;11.896;2023-09-19T12:07:44;1.90;;;1.80;;
33266;SDS011;19638;49.080;11.896;2023-09-19T12:11:52;2.80;;;1.80;;
33266;SDS011;19638;49.080;11.896;2023-09-19T12:15:59;1.88;;;1.73;;
33266;SDS011;19638;49.080;11.896;2023-09-19T12:20:02;4.60;;;1.70;;
33266;SDS011;19638;49.080;11.896;2023-09-19T12:24:14;3.15;;;2.00;;
33266;SDS011;19638;49.080;11.896;2023-09-19T12:28:20;2.95;;;2.10;;
33266;SDS011;19638;49.080;11.896;2023-09-19T12:32:35;4.03;;;2.00;;
33266;SDS011;19638;49.080;11.896;2023-09-19T12:36:44;2.67;;;1.55;;
33266;SDS011;19638;49.080;11.896;2023-09-19T12:40:53;2.50;;;1.40;;
33266;SDS011;19638;49.080;11.896;2023-09-19T12:44:58;2.13;;;1.50;;
33266;SDS011;19638;49.080;11.896;2023-09-19T12:49:17;1.95;;;1.50;;
33266;SDS011;19638;49.080;11.896;2023-09-19T12:53:24;3.83;;;1.75;;
33266;SDS011;19638;49.080;11.896;2023-09-19T12:57:31;1.65;;;1.55;;
33266;SDS011;19638;49.080;11.896;2023-09-19T13:01:36;1.60;;;1.50;;
33266;SDS011;19638;49.080;11.896;2023-09-19T13:05:52;2.28;;;1.63;;
33266;SDS011;19638;49.080;11.896;2023-09-19T13:10:03;1.98;;;1.67;;
33266;SDS011;19638;49.080;11.896;2023-09-19T13:14:14;2.05;;;1.60;;
33266;SDS011;19638;49.080;11.896;2023-09-19T13:18:21;1.35;;;1.25;;
33266;SDS011;19638;49.080;11.896;2023-09-19T13:22:39;1.52;;;1.40;;
33266;SDS011;19638;49.080;11.896;2023-09-19T13:26:45;1.50;;;1.40;;
33266;SDS011;19638;49.080;11.896;2023-09-19T13:30:48;3.80;;;2.08;;
33266;SDS011;19638;49.080;11.896;2023-09-19T13:34:51;2.33;;;1.40;;
33266;SDS011;19638;49.080;11.896;2023-09-19T13:38:56;1.40;;;1.30;;
33266;SDS011;19638;49.080;11.896;2023-09-19T13:43:02;1.50;;;1.40;;
33266;SDS011;19638;49.080;11.896;2023-09-19T13:47:08;1.55;;;1.45;;
33266;SDS011;19638;49.080;11.896;2023-09-19T13:51:15;1.58;;;1.50;;
33266;SDS011;19638;49.080;11.896;2023-09-19T13:55:22;5.72;;;1.73;;
33266;SDS011;19638;49.080;11.896;2023-09-19T13:59:31;1.95;;;1.52;;
33266;SDS011;19638;49.080;11.896;2023-09-19T14:03:37;1.70;;;1.60;;
33266;SDS011;19638;49.080;11.896;2023-09-19T14:07:40;2.70;;;1.20;;
33266;SDS011;19638;49.080;11.896;2023-09-19T14:11:49;2.55;;;1.50;;
33266;SDS011;19638;49.080;11.896;2023-09-19T14:15:57;1.40;;;1.40;;
33266;SDS011;19638;49.080;11.896;2023-09-19T14:20:06;1.63;;;1.52;;
33266;SDS011;19638;49.080;11.896;2023-09-19T14:24:16;1.45;;;1.35;;
33266;SDS011;19638;49.080;11.896;2023-09-19T14:28:23;1.52;;;1.40;;
33266;SDS011;19638;49.080;11.896;2023-09-19T14:32:31;2.13;;;1.60;;
33266;SDS011;19638;49.080;11.896;2023-09-19T14:36:34;1.83;;;1.50;;
33266;SDS011;19638;49.080;11.896;2023-09-19T14:40:41;2.33;;;1.45;;
33266;SDS011;19638;49.080;11.896;2023-09-19T14:44:45;2.10;;;1.58;;
33266;SDS011;19638;49.080;11.896;2023-09-19T14:48:52;2.35;;;1.42;;
33266;SDS011;19638;49.080;11.896;2023-09-19T14:52:58;1.88;;;1.60;;
33266;SDS011;19638;49.080;11.896;2023-09-19T14:57:03;1.63;;;1.52;;
33266;SDS011;19638;49.080;11.896;2023-09-19T15:01:09;1.60;;;1.60;;
33266;SDS011;19638;49.080;11.896;2023-09-19T15:05:18;2.72;;;1.52;;
33266;SDS011;19638;49.080;11.896;2023-09-19T15:09:23;2.58;;;1.80;;
33266;SDS011;19638;49.080;11.896;2023-09-19T15:13:29;2.72;;;1.40;;
33266;SDS011;19638;49.080;11.896;2023-09-19T15:17:39;1.73;;;1.30;;
33266;SDS011;19638;49.080;11.896;2023-09-19T15:21:43;2.08;;;1.40;;
33266;SDS011;19638;49.080;11.896;2023-09-19T15:25:49;1.58;;;1.48;;
33266;SDS011;19638;49.080;11.896;2023-09-19T15:29:53;1.55;;;1.45;;
33266;SDS011;19638;49.080;11.896;2023-09-19T15:33:58;1.83;;;1.73;;
33266;SDS011;19638;49.080;11.896;2023-09-19T15:38:03;2.90;;;1.40;;
33266;SDS011;19638;49.080;11.896;2023-09-19T15:42:06;6.78;;;2.45;;
33266;SDS011;19638;49.080;11.896;2023-09-19T15:46:12;1.73;;;1.50;;
33266;SDS011;19638;49.080;11.896;2023-09-19T15:50:18;2.65;;;1.50;;
33266;SDS011;19638;49.080;11.896;2023-09-19T15:54:22;1.85;;;1.70;;
33266;SDS011;19638;49.080;11.896;2023-09-19T15:58:29;1.60;;;1.50;;
33266;SDS011;19638;49.080;11.896;2023-09-19T16:02:37;1.67;;;1.55;;
33266;SDS011;19638;49.080;11.896;2023-09-19T16:06:42;1.52;;;1.40;;
33266;SDS011;19638;49.080;11.896;2023-09-19T16:10:46;3.83;;;1.55;;
33266;SDS011;19638;49.080;11.896;2023-09-19T16:14:51;1.40;;;1.40;;
33266;SDS011;19638;49.080;11.896;2023-09-19T16:18:55;1.50;;;1.40;;
33266;SDS011;19638;49.080;11.896;2023-09-19T16:23:06;1.48;;;1.38;;
33266;SDS011;19638;49.080;11.896;2023-09-19T16:27:12;1.50;;;1.30;;
33266;SDS011;19638;49.080;11.896;2023-09-19T16:31:19;2.35;;;1.30;;
33266;SDS011;19638;49.080;11.896;2023-09-19T16:35:24;3.17;;;1.60;;
33266;SDS011;19638;49.080;11.896;2023-09-19T16:39:29;2.28;;;1.60;;
33266;SDS011;19638;49.080;11.896;2023-09-19T16:43:35;1.60;;;1.50;;
33266;SDS011;19638;49.080;11.896;2023-09-19T16:47:41;1.77;;;1.67;;
33266;SDS011;19638;49.080;11.896;2023-09-19T16:51:53;1.80;;;1.50;;
33266;SDS011;19638;49.080;11.896;2023-09-19T16:56:01;4.88;;;1.80;;
33266;SDS011;19638;49.080;11.896;2023-09-19T17:00:05;4.13;;;1.20;;
33266;SDS011;19638;49.080;11.896;2023-09-19T17:04:11;1.98;;;1.88;;
33266;SDS011;19638;49.080;11.896;2023-09-19T17:08:21;4.35;;;1.75;;
33266;SDS011;19638;49.080;11.896;2023-09-19T17:12:26;4.03;;;1.60;;
33266;SDS011;19638;49.080;11.896;2023-09-19T17:16:32;1.50;;;1.40;;
33266;SDS011;19638;49.080;11.896;2023-09-19T17:20:41;2.55;;;1.50;;
33266;SDS011;19638;49.080;11.896;2023-09-19T17:24:45;4.25;;;1.73;;
33266;SDS011;19638;49.080;11.896;2023-09-19T17:28:50;4.80;;;1.70;;
33266;SDS011;19638;49.080;11.896;2023-09-19T17:32:55;1.75;;;1.52;;
33266;SDS011;19638;49.080;11.896;2023-09-19T17:36:58;1.80;;;1.70;;
33266;SDS011;19638;49.080;11.896;2023-09-19T17:41:04;4.38;;;1.90;;
33266;SDS011;19638;49.080;11.896;2023-09-19T17:45:13;2.13;;;1.73;;
33266;SDS011;19638;49.080;11.896;2023-09-19T17:49:17;1.48;;;1.38;;
33266;SDS011;19638;49.080;11.896;2023-09-19T17:53:23;6.20;;;1.60;;
33266;SDS011;19638;49.080;11.896;2023-09-19T17:57:29;4.45;;;1.85;;
33266;SDS011;19638;49.080;11.896;2023-09-19T18:01:36;4.25;;;3.15;;
33266;SDS011;19638;49.080;11.896;2023-09-19T18:05:42;5.55;;;2.13;;
33266;SDS011;19638;49.080;11.896;2023-09-19T18:09:50;1.95;;;1.73;;
33266;SDS011;19638;49.080;11.896;2023-09-19T18:13:55;2.08;;;1.88;;
33266;SDS011;19638;49.080;11.896;2023-09-19T18:18:02;2.85;;;1.67;;
33266;SDS011;19638;49.080;11.896;2023-09-19T18:22:10;4.10;;;1.95;;
33266;SDS011;19638;49.080;11.896;2023-09-19T18:26:14;2.42;;;2.20;;
33266;SDS011;19638;49.080;11.896;2023-09-19T18:30:23;2.42;;;2.20;;
33266;SDS011;19638;49.080;11.896;2023-09-19T18:34:28;3.08;;;2.10;;
33266;SDS011;19638;49.080;11.896;2023-09-19T18:38:36;3.60;;;2.42;;
33266;SDS011;19638;49.080;11.896;2023-09-19T18:42:42;2.40;;;2.08;;
33266;SDS011;19638;49.080;11.896;2023-09-19T18:46:48;3.70;;;1.85;;
33266;SDS011;19638;49.080;11.896;2023-09-19T18:50:54;3.60;;;1.90;;
33266;SDS011;19638;49.080;11.896;2023-09-19T18:54:57;2.17;;;1.98;;
33266;SDS011;19638;49.080;11.896;2023-09-19T18:59:01;4.47;;;1.88;;
33266;SDS011;19638;49.080;11.896;2023-09-19T19:03:04;3.70;;;2.10;;
33266;SDS011;19638;49.080;11.896;2023-09-19T19:07:14;2.70;;;1.77;;
33266;SDS011;19638;49.080;11.896;2023-09-19T19:11:23;7.60;;;1.95;;
33266;SDS011;19638;49.080;11.896;2023-09-19T19:15:33;2.63;;;2.05;;
33266;SDS011;19638;49.080;11.896;2023-09-19T19:19:36;2.38;;;1.90;;
33266;SDS011;19638;49.080;11.896;2023-09-19T19:23:42;2.60;;;1.90;;
33266;SDS011;19638;49.080;11.896;2023-09-19T19:27:45;1.92;;;1.83;;
33266;SDS011;19638;49.080;11.896;2023-09-19T19:31:50;2.75;;;2.45;;
33266;SDS011;19638;49.080;11.896;2023-09-19T19:36:02;4.30;;;1.95;;
33266;SDS011;19638;49.080;11.896;2023-09-19T19:40:14;5.20;;;2.10;;
33266;SDS011;19638;49.080;11.896;2023-09-19T19:44:18;3.45;;;2.30;;
33266;SDS011;19638;49.080;11.896;2023-09-19T19:48:23;4.53;;;2.10;;
33266;SDS011;19638;49.080;11.896;2023-09-19T19:52:28;5.88;;;2.67;;
33266;SDS011;19638;49.080;11.896;2023-09-19T19:56:36;4.93;;;2.17;;
33266;SDS011;19638;49.080;11.896;2023-09-19T20:00:41;2.55;;;2.03;;
33266;SDS011;19638;49.080;11.896;2023-09-19T20:04:45;3.30;;;2.20;;
33266;SDS011;19638;49.080;11.896;2023-09-19T20:08:50;2.60;;;2.20;;
33266;SDS011;19638;49.080;11.896;2023-09-19T20:12:55;3.25;;;2.25;;
33266;SDS011;19638;49.080;11.896;2023-09-19T20:17:02;4.70;;;2.28;;
33266;SDS011;19638;49.080;11.896;2023-09-19T20:21:07;3.53;;;2.30;;
33266;SDS011;19638;49.080;11.896;2023-09-19T20:25:16;2.58;;;2.38;;
33266;SDS011;19638;49.080;11.896;2023-09-19T20:29:24;4.57;;;2.20;;
33266;SDS011;19638;49.080;11.896;2023-09-19T20:33:30;2.70;;;2.50;;
33266;SDS011;19638;49.080;11.896;2023-09-19T20:37:39;3.88;;;2.50;;
33266;SDS011;19638;49.080;11.896;2023-09-19T20:41:42;3.13;;;2.42;;
33266;SDS011;19638;49.080;11.896;2023-09-19T20:45:48;2.55;;;2.20;;
33266;SDS011;19638;49.080;11.896;2023-09-19T20:49:54;2.88;;;2.67;;
33266;SDS011;19638;49.080;11.896;2023-09-19T20:53:58;6.03;;;2.60;;
33266;SDS011;19638;49.080;11.896;2023-09-19T20:58:01;2.63;;;2.40;;
33266;SDS011;19638;49.080;11.896;2023-09-19T21:02:11;5.40;;;2.67;;
33266;SDS011;19638;49.080;11.896;2023-09-19T21:06:14;3.90;;;2.55;;
33266;SDS011;19638;49.080;11.896;2023-09-19T21:10:20;7.15;;;2.70;;
33266;SDS011;19638;49.080;11.896;2023-09-19T21:14:23;5.65;;;2.72;;
33266;SDS011;19638;49.080;11.896;2023-09-19T21:18:28;2.83;;;2.45;;
33266;SDS011;19638;49.080;11.896;2023-09-19T21:22:31;6.07;;;3.03;;
33266;SDS011;19638;49.080;11.896;2023-09-19T21:26:35;7.72;;;2.47;;
33266;SDS011;19638;49.080;11.896;2023-09-19T21:30:38;9.90;;;2.47;;
33266;SDS011;19638;49.080;11.896;2023-09-19T21:34:43;2.78;;;2.55;;
33266;SDS011;19638;49.080;11.896;2023-09-19T21:38:49;4.32;;;2.38;;
33266;SDS011;19638;49.080;11.896;2023-09-19T21:42:53;4.78;;;2.63;;
33266;SDS011;19638;49.080;11.896;2023-09-19T21:46:56;5.45;;;2.80;;
33266;SDS011;19638;49.080;11.896;2023-09-19T21:51:01;2.83;;;2.03;;
33266;SDS011;19638;49.080;11.896;2023-09-19T21:55:10;3.05;;;2.78;;
33266;SDS011;19638;49.080;11.896;2023-09-19T21:59:15;2.80;;;2.55;;
33266;SDS011;19638;49.080;11.896;2023-09-19T22:03:21;5.90;;;2.70;;
33266;SDS011;19638;49.080;11.896;2023-09-19T22:07:31;3.90;;;2.47;;
33266;SDS011;19638;49.080;11.896;2023-09-19T22:11:38;3.25;;;2.75;;
33266;SDS011;19638;49.080;11.896;2023-09-19T22:15:44;3.25;;;2.63;;
33266;SDS011;19638;49.080;11.896;2023-09-19T22:19:52;3.88;;;2.38;;
33266;SDS011;19638;49.080;11.896;2023-09-19T22:24:01;5.28;;;2.88;;
33266;SDS011;19638;49.080;11.896;2023-09-19T22:28:07;4.72;;;2.83;;
33266;SDS011;19638;49.080;11.896;2023-09-19T22:32:13;3.65;;;2.80;;
33266;SDS011;19638;49.080;11.896;2023-09-19T22:36:16;5.53;;;3.08;;
33266;SDS011;19638;49.080;11.896;2023-09-19T22:40:25;4.53;;;2.70;;
33266;SDS011;19638;49.080;11.896;2023-09-19T22:44:38;4.75;;;2.70;;
33266;SDS011;19638;49.080;11.896;2023-09-19T22:48:47;7.35;;;2.90;;
33266;SDS011;19638;49.080;11.896;2023-09-19T22:52:52;3.45;;;2.90;;
33266;SDS011;19638;49.080;11.896;2023-09-19T22:57:01;4.25;;;3.00;;
33266;SDS011;19638;49.080;11.896;2023-09-19T23:01:07;3.42;;;2.70;;
33266;SDS011;19638;49.080;11.896;2023-09-19T23:05:16;9.60;;;3.20;;
33266;SDS011;19638;49.080;11.896;2023-09-19T23:09:20;4.20;;;3.28;;
33266;SDS011;19638;49.080;11.896;2023-09-19T23:13:28;3.35;;;3.03;;
33266;SDS011;19638;49.080;11.896;2023-09-19T23:17:32;5.57;;;3.35;;
33266;SDS011;19638;49.080;11.896;2023-09-19T23:21:40;2.97;;;2.67;;
33266;SDS011;19638;49.080;11.896;2023-09-19T23:25:49;9.52;;;2.75;;
33266;SDS011;19638;49.080;11.896;2023-09-19T23:29:55;7.25;;;3.28;;
33266;SDS011;19638;49.080;11.896;2023-09-19T23:34:00;3.40;;;2.53;;
33266;SDS011;19638;49.080;11.896;2023-09-19T23:38:04;4.72;;;2.78;;
33266;SDS011;19638;49.080;11.896;2023-09-19T23:42:08;3.88;;;2.55;;
33266;SDS011;19638;49.080;11.896;2023-09-19T23:46:16;8.50;;;2.63;;
33266;SDS011;19638;49.080;11.896;2023-09-19T23:50:20;4.05;;;3.20;;
33266;SDS011;19638;49.080;11.896;2023-09-19T23:54:29;2.80;;;2.60;;
33266;SDS011;19638;49.080;11.896;2023-09-19T23:58:36;3.50;;;2.90;;
